Date,TemperatureHighF,TemperatureAvgF,TemperatureLowF,DewpointHighF,DewpointAvgF,DewpointLowF,HumidityHigh,HumidityAvg,HumidityLow,PressureMaxIn,PressureMinIn,WindSpeedMaxMPH,WindSpeedAvgMPH,GustSpeedMaxMPH,PrecipitationSumIn
2013-1-1,39.8,36.2,32.0,37.4,34.2,30.2,95,93,89,30.45,30.30,9,2,9,0.01
2013-1-2,38.5,33.3,30.1,36.7,31.5,28.1,95,93,92,30.31,30.15,5,2,5,0.00
2013-1-3,37.3,32.9,28.8,34.9,31.1,27.0,95,93,91,30.16,30.07,8,2,8,0.25
2013-1-4,47.7,41.9,35.6,46.7,40.7,34.1,97,96,95,30.28,30.13,10,2,10,0.14
2013-1-5,43.7,41.8,40.3,42.7,40.7,39.2,96,96,95,30.17,30.08,5,1,5,0.11
2013-1-6,46.1,41.1,37.3,44.5,39.7,35.9,96,95,93,30.16,29.95,2,0,2,0.16
2013-1-7,49.0,45.2,41.6,48.2,43.9,40.3,97,95,92,30.12,29.78,6,0,6,0.08
2013-1-8,50.8,46.1,42.1,49.1,44.8,40.8,97,95,93,30.12,29.71,0,0,0,0.76
2013-1-9,49.3,41.3,36.0,48.3,39.6,33.8,96,93,90,29.91,29.64,10,1,10,1.13
2013-1-10,38.3,35.2,31.3,36.2,33.3,29.3,95,93,91,30.09,29.90,7,1,7,0.01
2013-1-11,38.2,32.0,27.7,32.6,28.6,25.5,94,87,73,30.29,30.08,9,1,9,0.00
2013-1-12,36.9,30.4,25.9,33.1,27.4,23.7,93,89,77,30.40,30.27,7,1,7,0.01
2013-1-13,37.1,30.2,26.6,32.7,27.3,24.1,92,89,82,30.46,30.39,4,1,4,0.01
2013-1-14,41.6,31.6,26.5,35.6,28.8,24.2,93,90,71,30.53,30.43,5,1,5,0.00
2013-1-15,45.5,34.4,27.7,39.5,31.6,26.2,95,90,74,30.66,30.53,0,0,0,0.00
2013-1-16,53.3,33.2,26.6,42.4,30.8,25.1,96,91,66,30.64,30.47,0,0,0,0.00
2013-1-17,38.2,35.9,31.0,36.3,34.1,29.0,94,93,92,30.48,30.26,0,0,0,0.01
2013-1-18,39.6,35.3,32.0,37.6,33.7,30.5,95,94,92,30.31,30.22,0,0,0,0.00
2013-1-19,37.8,36.3,35.1,36.2,34.8,33.5,95,94,93,30.35,30.29,0,0,0,0.00
2013-1-20,41.4,37.5,34.9,39.5,36.0,33.0,95,94,92,30.35,30.23,5,0,5,0.00
2013-1-21,38.5,36.8,33.7,37.0,35.3,31.8,95,94,93,30.25,30.10,5,0,5,0.00
2013-1-22,38.7,35.0,32.0,36.9,33.4,30.5,95,94,93,30.11,29.88,2,0,2,0.01
2013-1-23,41.9,39.8,36.9,40.3,38.0,35.4,95,93,90,30.10,29.81,10,2,10,0.18
2013-1-24,43.7,39.4,32.8,41.6,37.9,31.5,96,95,90,30.17,30.02,6,1,6,0.18
2013-1-25,54.7,44.1,37.1,50.9,42.2,35.2,96,93,86,30.03,29.89,5,1,5,0.02
2013-1-26,45.2,41.3,37.3,43.8,39.7,35.6,95,94,91,30.01,29.84,5,1,5,0.24
2013-1-27,41.4,40.0,38.5,40.1,38.4,36.6,95,94,93,30.03,29.95,9,2,9,0.05
2013-1-28,42.3,40.3,38.2,41.0,38.8,36.5,95,94,94,30.06,29.97,7,1,7,0.06
2013-1-29,46.4,43.9,40.9,45.4,42.7,39.3,96,95,95,30.32,30.05,10,1,10,0.09
2013-1-30,49.7,46.5,43.9,48.3,45.2,42.6,96,95,95,30.35,30.27,6,1,6,0.04
2013-1-31,50.0,46.4,45.0,48.6,44.9,43.7,96,95,93,30.37,30.26,10,2,10,0.08
2013-2-1,50.4,45.1,41.6,48.3,43.4,39.7,96,94,90,30.37,30.29,9,2,9,0.02
2013-2-2,45.4,42.4,40.1,43.2,40.7,38.1,95,94,91,30.34,30.22,9,2,9,0.00
2013-2-3,49.0,43.0,39.4,46.9,41.2,37.8,95,94,91,30.27,30.17,6,1,6,0.03
2013-2-4,51.5,45.2,40.3,48.0,42.8,38.0,95,92,85,30.18,29.86,7,1,7,0.02
2013-2-5,50.9,43.8,38.7,47.4,41.6,36.5,94,92,86,29.92,29.80,12,2,12,0.18
2013-2-6,49.7,43.9,41.4,46.8,41.9,39.8,95,93,88,30.02,29.76,11,2,11,0.26
2013-2-7,46.8,40.7,34.9,43.5,38.0,32.2,94,90,83,30.15,29.77,10,2,10,0.08
2013-2-8,46.4,39.0,32.6,43.6,36.4,30.5,95,91,84,30.28,30.15,7,1,7,0.00
2013-2-9,49.3,42.0,36.2,44.6,38.9,34.0,94,89,81,30.31,30.22,5,1,5,0.01
2013-2-10,45.2,41.5,36.4,41.2,38.5,33.8,94,89,85,30.34,30.29,6,1,6,0.00
2013-2-11,49.0,43.0,37.4,44.9,40.0,35.0,94,89,82,30.32,30.29,7,1,7,0.01
2013-2-12,50.9,46.4,43.6,47.9,44.1,41.4,94,92,87,30.36,30.28,15,2,15,0.02
2013-2-13,50.9,46.6,43.6,46.1,43.0,40.4,92,87,81,30.47,30.28,12,2,12,0.02
2013-2-14,49.9,46.0,41.2,47.3,43.6,38.3,92,91,89,30.52,30.46,5,0,5,0.02
2013-2-15,55.4,45.9,37.3,50.0,42.8,34.5,94,89,78,30.51,30.15,8,1,8,0.00
2013-2-16,53.6,44.4,35.6,45.9,40.0,33.2,93,85,70,30.16,30.08,19,3,19,0.00
2013-2-17,51.1,41.9,36.4,43.5,36.8,32.8,88,82,70,30.21,30.07,11,1,11,0.00
2013-2-18,48.1,41.1,36.2,42.3,36.9,33.4,93,85,74,30.07,29.72,8,1,8,0.01
2013-2-19,53.3,40.6,31.3,45.9,36.1,28.3,91,84,72,29.98,29.70,10,1,10,0.00
2013-2-20,47.2,39.3,31.3,42.8,36.5,28.3,93,89,84,30.01,29.96,8,1,8,0.13
2013-2-21,43.7,41.1,39.2,41.4,39.0,37.1,93,92,90,30.04,29.98,13,2,13,0.07
2013-2-22,44.5,40.8,36.7,42.7,38.7,33.9,94,92,89,30.04,29.67,19,4,19,0.75
2013-2-23,53.1,41.4,34.0,46.4,36.8,31.7,93,84,68,30.33,29.87,14,2,14,0.00
2013-2-24,47.9,43.5,38.3,41.7,38.0,34.5,87,81,74,30.34,29.91,12,2,12,0.04
2013-2-25,52.4,42.4,33.5,42.3,36.5,29.1,90,80,54,30.28,29.86,21,4,21,0.15
2013-2-26,51.1,41.5,32.4,41.3,35.8,28.7,90,81,67,30.31,30.16,12,2,12,0.01
2013-2-27,50.2,44.8,39.6,44.7,41.2,35.7,91,87,82,30.27,30.16,7,1,7,0.24
2013-2-28,52.6,47.4,42.5,50.6,45.6,40.2,94,93,91,30.30,30.16,9,2,9,0.56
2013-3-1,55.8,51.9,49.9,52.9,49.8,47.4,95,92,89,30.34,30.25,13,2,13,0.15
2013-3-2,58.1,48.8,36.0,52.4,45.4,33.3,91,88,78,30.25,30.04,12,2,12,0.28
2013-3-3,53.6,39.0,29.9,45.7,34.7,27.9,94,85,67,30.27,30.17,6,1,6,0.01
2013-3-4,53.3,39.8,30.6,43.2,34.2,28.4,92,81,64,30.27,29.89,10,1,10,0.00
2013-3-5,50.9,42.3,35.5,44.6,37.3,30.4,90,83,75,29.89,29.69,7,1,7,0.07
2013-3-6,44.8,41.8,39.4,42.2,39.2,36.7,93,90,88,29.86,29.54,9,1,9,0.32
2013-3-7,53.6,44.5,38.7,48.7,41.3,36.0,94,89,75,30.06,29.86,10,1,10,0.23
2013-3-8,55.1,44.1,35.6,47.4,39.8,31.9,92,85,70,30.21,30.04,9,2,9,0.00
2013-3-9,55.1,41.3,32.8,46.1,36.8,30.1,93,84,65,30.47,30.21,5,1,5,0.01
2013-3-10,46.6,41.9,34.7,43.1,38.5,31.3,91,88,84,30.46,30.39,5,1,5,0.00
2013-3-11,49.5,45.4,41.9,44.8,42.3,39.1,93,89,82,30.41,30.14,5,1,5,0.08
2013-3-12,54.0,50.4,46.4,50.5,48.2,44.6,94,92,86,30.14,30.05,11,2,11,0.55
2013-3-13,52.2,49.4,47.9,50.3,47.8,46.3,95,94,94,30.17,30.08,8,2,8,0.19
2013-3-14,52.9,49.7,47.5,49.0,46.7,45.0,94,89,81,30.13,30.03,11,2,11,0.13
2013-3-15,57.1,50.9,47.3,52.8,48.2,44.6,95,91,82,30.18,30.11,15,3,15,0.08
2013-3-16,48.8,45.1,38.9,46.4,42.0,35.5,93,89,79,30.11,29.87,16,4,16,0.15
2013-3-17,49.9,41.0,34.7,38.6,35.2,32.0,90,80,61,30.17,29.95,21,3,21,0.00
2013-3-18,55.1,44.3,38.5,42.1,36.3,32.5,91,75,48,30.20,30.10,12,3,12,0.02
2013-3-19,51.1,43.0,37.8,41.5,37.6,32.9,91,81,66,30.19,29.56,7,1,7,0.46
2013-3-20,50.8,45.0,38.3,47.8,41.4,33.3,94,87,78,29.99,29.36,21,4,21,0.74
2013-3-21,50.2,40.7,33.5,38.8,34.8,29.7,89,80,56,30.18,29.99,16,3,16,0.04
2013-3-22,47.2,37.8,31.9,37.3,31.8,27.9,90,80,59,30.34,30.18,8,1,8,0.00
2013-3-23,51.3,39.9,33.5,38.8,31.6,27.3,87,73,49,30.36,30.27,6,1,6,0.00
2013-3-24,52.9,40.5,30.8,40.0,32.9,26.7,89,75,51,30.27,30.10,6,1,6,0.01
2013-3-25,58.7,47.1,34.2,41.8,34.9,29.5,87,64,40,30.10,29.91,6,1,6,0.00
2013-3-26,59.9,51.2,44.6,43.7,39.2,35.3,75,64,53,29.99,29.93,8,1,8,0.00
2013-3-27,55.4,49.1,43.2,45.9,41.2,37.1,85,74,64,29.97,29.91,6,1,6,0.00
2013-3-28,60.3,50.4,43.7,51.3,45.1,39.3,91,82,68,30.12,29.96,6,1,6,0.09
2013-3-29,62.5,51.9,44.3,51.0,44.8,40.8,91,78,53,30.23,30.12,8,1,8,0.00
2013-3-30,61.7,51.9,43.7,49.3,44.4,40.8,94,76,58,30.23,30.05,13,3,13,0.00
2013-3-31,65.0,55.1,46.8,48.7,44.4,41.3,84,68,50,30.05,29.89,9,2,9,0.00
2013-4-1,62.6,52.8,48.6,51.6,46.2,42.6,86,79,63,30.14,29.96,11,2,11,0.00
2013-4-2,56.7,51.7,47.5,49.3,45.9,42.9,85,81,75,30.17,30.13,9,1,9,0.00
2013-4-3,60.3,52.4,44.6,49.5,45.1,41.1,91,77,64,30.17,29.92,6,1,6,0.00
2013-4-4,53.6,50.6,47.9,51.7,47.1,43.3,93,88,78,29.92,29.63,9,1,9,0.32
2013-4-5,57.8,51.5,47.9,52.4,48.7,45.7,94,90,79,29.85,29.70,14,3,14,0.96
2013-4-6,50.4,46.8,43.9,47.7,44.7,41.8,94,92,88,29.91,29.68,14,2,14,0.59
2013-4-7,48.6,43.2,38.7,46.5,41.3,36.8,95,93,87,29.86,29.47,9,1,10,1.07
2013-4-8,56.2,47.7,41.2,49.3,43.9,39.6,95,87,75,30.25,29.86,8,1,8,0.01
2013-4-9,56.5,47.7,40.3,46.9,42.6,37.4,91,83,67,30.32,30.16,8,1,8,0.00
2013-4-10,59.4,51.7,45.0,51.2,45.2,39.5,94,79,61,30.22,29.92,21,4,21,0.52
2013-4-11,52.7,46.8,41.8,46.5,41.0,36.3,91,80,66,30.28,30.16,8,2,8,0.02
2013-4-12,45.9,42.4,38.5,42.3,38.5,34.1,92,86,77,30.16,29.67,13,2,13,0.39
2013-4-13,50.0,43.2,36.9,43.2,38.2,33.3,90,83,70,29.97,29.71,17,4,17,0.00
2013-4-14,54.7,44.8,38.2,44.9,37.8,32.1,88,77,46,29.98,29.90,10,2,10,0.00
2013-4-15,56.9,45.3,36.4,44.1,38.0,32.5,90,77,54,30.15,29.92,8,2,8,0.00
2013-4-16,57.4,46.2,35.6,44.8,37.3,31.5,90,72,49,30.36,30.15,9,2,9,0.00
2013-4-17,61.2,48.2,37.4,45.3,38.7,32.2,85,71,50,30.43,30.36,13,2,13,0.00
2013-4-18,51.1,47.1,42.3,46.3,42.0,35.5,90,82,75,30.43,30.18,10,2,10,0.07
2013-4-19,55.8,50.6,47.9,53.1,48.1,44.6,93,91,87,30.18,30.03,13,2,13,0.62
2013-4-20,59.0,50.5,44.8,49.1,45.0,41.0,90,82,67,30.25,30.16,13,3,13,0.00
2013-4-21,51.5,46.5,41.8,46.2,42.3,38.0,89,85,78,30.33,30.20,10,2,10,0.10
2013-4-22,59.0,48.6,38.0,45.9,38.3,31.6,92,70,40,30.50,30.33,12,2,12,0.01
2013-4-23,62.8,49.6,34.6,43.2,35.1,28.4,84,60,32,30.40,30.22,10,2,10,0.00
2013-4-24,68.8,55.8,40.1,45.5,38.6,30.9,82,56,28,30.30,30.04,10,2,10,0.00
2013-4-25,71.5,58.1,42.8,46.3,40.5,33.8,73,54,32,30.13,30.01,6,1,6,0.02
2013-4-26,70.4,56.6,48.1,51.7,45.8,42.0,83,68,47,30.24,30.13,6,1,6,0.00
2013-4-27,57.4,53.4,50.8,48.1,44.5,39.6,86,72,61,30.20,30.14,15,3,15,0.00
2013-4-28,60.3,53.0,47.5,49.3,44.5,40.3,87,74,54,30.18,29.92,18,3,18,0.14
2013-4-29,58.5,49.7,41.8,45.5,39.2,32.1,89,69,45,30.13,29.89,15,3,15,0.01
2013-4-30,55.8,46.2,34.7,39.5,34.6,29.2,83,65,49,30.42,30.13,10,2,10,0.00
2013-5-1,62.3,49.7,34.6,42.9,34.5,29.3,84,59,34,30.55,30.42,12,2,12,0.00
2013-5-2,65.9,54.9,45.5,45.4,40.3,34.0,71,59,40,30.53,30.35,11,2,11,0.00
2013-5-3,65.3,57.0,47.2,49.2,44.7,38.7,78,64,50,30.37,30.20,16,3,16,0.00
2013-5-4,73.3,62.1,52.4,50.8,45.9,41.3,73,57,35,30.21,29.97,13,2,13,0.00
2013-5-5,74.9,66.7,56.7,49.8,46.0,42.0,65,48,36,29.97,29.76,11,3,11,0.00
2013-5-6,82.4,67.5,52.6,52.5,48.1,44.0,75,52,29,29.84,29.75,9,2,9,0.00
2013-5-7,69.5,58.6,51.7,54.9,49.4,45.5,82,72,58,29.99,29.82,10,2,10,0.00
2013-5-8,64.1,55.9,51.1,53.8,48.8,45.5,83,77,67,30.13,29.99,7,1,7,0.00
2013-5-9,65.7,55.3,49.1,55.3,49.2,44.8,90,80,62,30.20,30.10,6,1,6,0.00
2013-5-10,74.9,61.7,47.9,58.6,51.2,43.3,86,70,50,30.18,30.09,6,2,6,0.00
2013-5-11,81.4,64.9,51.8,57.9,51.6,44.2,79,64,42,30.17,29.98,10,2,10,0.00
2013-5-12,69.3,62.1,56.9,58.5,54.9,51.0,85,78,65,30.09,30.01,9,2,9,0.05
2013-5-13,62.8,56.8,48.6,57.7,52.8,43.1,90,87,81,30.17,29.92,15,2,15,0.39
2013-5-14,64.4,58.5,48.1,49.0,44.2,39.9,83,60,44,30.20,30.09,8,1,8,0.00
2013-5-15,63.7,53.0,43.2,51.7,46.0,38.3,87,78,58,30.10,30.00,8,1,8,0.07
2013-5-16,68.2,59.0,50.2,55.3,51.0,46.7,91,76,57,30.00,29.86,10,2,10,0.04
2013-5-17,65.9,57.3,51.8,53.5,49.5,45.9,88,76,58,30.04,29.94,10,2,10,0.05
2013-5-18,60.5,55.4,50.6,51.1,48.2,45.5,84,77,67,30.25,30.04,7,1,7,0.00
2013-5-19,63.0,55.4,50.2,54.5,49.6,45.2,86,81,70,30.38,30.25,8,1,8,0.00
2013-5-20,67.3,54.8,45.0,54.5,47.4,41.0,88,77,52,30.34,29.89,12,2,12,0.00
2013-5-21,60.8,51.5,45.5,50.1,45.0,41.9,91,79,58,29.90,29.76,16,2,16,0.56
2013-5-22,52.9,47.9,44.1,48.2,43.8,40.6,90,86,80,29.91,29.82,10,1,10,0.31
2013-5-23,52.7,47.4,43.4,48.2,44.0,40.1,91,88,84,29.99,29.90,8,0,8,0.23
2013-5-24,62.8,52.8,44.3,52.5,46.9,41.6,92,81,61,30.04,29.94,9,1,9,0.01
2013-5-25,63.2,54.8,49.0,50.8,47.5,44.9,87,77,61,30.02,29.95,7,1,7,0.00
2013-5-26,63.2,54.7,50.0,55.9,50.0,46.1,92,85,72,29.97,29.93,10,1,10,0.15
2013-5-27,58.0,53.8,49.1,55.4,51.0,45.5,92,90,86,29.95,29.69,10,1,10,0.37
2013-5-28,61.2,54.8,50.8,55.8,50.3,47.2,93,85,72,29.86,29.75,13,2,13,0.05
2013-5-29,62.1,54.3,48.6,53.1,48.6,45.5,92,81,66,29.95,29.66,13,2,13,0.23
2013-5-30,62.8,54.8,48.2,51.5,47.5,43.7,87,77,62,30.17,29.95,11,2,11,0.02
2013-5-31,63.4,56.5,49.3,51.2,47.1,44.2,87,72,57,30.26,30.10,5,1,5,0.01
2013-6-1,73.1,64.7,55.1,55.2,50.3,46.1,74,60,47,30.18,30.03,8,2,8,0.00
2013-6-2,69.1,59.1,52.7,55.8,50.5,45.9,86,73,60,30.09,30.03,6,1,6,0.03
2013-6-3,73.1,59.4,52.0,57.0,50.9,46.6,86,74,52,30.11,30.04,8,1,8,0.00
2013-6-4,74.5,63.4,50.9,55.5,50.8,45.8,85,65,47,30.12,30.01,9,2,9,0.00
2013-6-5,74.2,62.8,52.6,57.9,51.9,45.2,78,68,47,30.08,30.02,10,2,10,0.00
2013-6-6,76.7,64.6,52.2,58.3,51.8,46.5,83,65,46,30.05,29.99,6,2,6,0.00
2013-6-7,70.6,61.7,54.0,56.2,51.1,46.6,79,68,57,30.14,30.02,10,2,11,0.00
2013-6-8,65.3,58.3,54.0,53.6,50.1,48.0,80,74,62,30.17,30.08,8,1,8,0.00
2013-6-9,65.0,57.2,52.2,52.8,48.8,45.9,82,74,60,30.10,30.01,10,2,10,0.00
2013-6-10,70.2,59.4,50.4,52.0,47.7,44.6,82,66,49,30.02,29.87,10,2,10,0.00
2013-6-11,67.3,57.9,49.0,50.1,46.2,43.0,81,66,49,30.09,29.93,13,2,13,0.00
2013-6-12,68.6,57.8,50.6,51.2,47.4,44.2,82,69,46,30.14,30.09,13,2,13,0.00
2013-6-13,67.7,58.0,51.3,55.7,50.3,45.2,84,76,55,30.20,30.12,6,1,6,0.12
2013-6-14,66.6,58.0,52.4,54.1,49.5,46.7,83,74,60,30.22,30.04,8,1,8,0.00
2013-6-15,71.1,60.8,50.6,55.7,50.8,45.9,86,70,56,30.04,29.91,9,2,10,0.00
2013-6-16,74.5,63.9,53.3,58.6,52.9,47.6,84,69,54,30.08,29.98,9,2,9,0.00
2013-6-17,76.5,64.4,56.3,56.9,52.4,49.0,81,66,44,30.08,29.90,15,2,15,0.01
2013-6-18,73.1,63.2,53.6,56.0,50.4,47.5,85,65,43,29.97,29.88,11,2,11,0.00
2013-6-19,69.1,59.9,52.9,54.4,49.8,46.4,82,70,52,29.99,29.90,10,1,10,0.00
2013-6-20,64.6,57.5,53.3,52.5,49.8,47.4,84,76,60,30.09,29.93,15,2,15,0.17
2013-6-21,68.8,59.3,53.1,57.1,50.8,48.1,84,74,53,30.15,30.08,7,1,7,0.00
2013-6-22,76.9,64.4,50.6,57.2,51.8,45.1,83,66,45,30.11,29.84,7,1,7,0.00
2013-6-23,67.9,62.8,59.6,60.1,55.8,51.4,82,78,69,29.84,29.60,5,1,6,0.27
2013-6-24,69.5,61.7,56.0,58.2,54.4,50.3,83,77,64,29.69,29.56,11,2,11,0.13
2013-6-25,74.3,62.2,56.2,61.4,54.7,50.5,83,77,55,29.84,29.66,9,1,9,0.43
2013-6-26,70.4,62.7,56.9,61.7,56.2,51.6,83,79,70,30.06,29.82,9,1,9,0.16
2013-6-27,67.9,62.7,58.0,61.8,56.6,52.2,82,80,77,30.18,30.03,5,1,5,0.20
2013-6-28,86.2,70.8,59.4,68.1,60.0,50.6,81,70,54,30.17,30.03,9,2,9,0.00
2013-6-29,84.1,71.9,62.8,65.1,60.2,56.2,80,68,51,30.09,29.98,8,1,8,0.00
2013-6-30,85.9,73.6,60.3,66.2,60.5,52.6,77,64,50,30.01,29.84,8,2,8,0.00
2013-7-1,87.8,74.6,64.8,68.7,62.4,57.8,79,66,51,30.02,29.91,8,2,8,0.00
2013-7-2,77.0,67.7,60.3,64.4,56.8,53.6,80,69,47,30.10,30.02,7,1,7,0.00
2013-7-3,72.5,65.7,59.2,57.1,52.6,48.3,73,63,47,30.14,30.03,9,2,9,0.00
2013-7-4,68.2,61.7,54.7,56.3,53.0,48.0,80,73,65,30.11,30.01,7,1,7,0.00
2013-7-5,74.5,64.6,55.3,59.0,54.3,48.8,81,70,55,30.02,29.95,6,1,6,0.00
2013-7-6,75.1,65.1,56.5,58.5,53.5,50.2,81,67,50,29.97,29.86,6,1,6,0.00
2013-7-7,76.5,64.1,57.2,62.6,55.5,51.1,81,74,61,29.94,29.88,8,2,9,0.00
2013-7-8,81.0,65.3,55.8,64.6,55.7,49.7,80,72,56,30.09,29.94,7,1,7,0.00
2013-7-9,77.4,67.8,56.9,60.7,56.2,50.8,80,67,51,30.10,29.98,8,1,8,0.00
2013-7-10,69.3,61.0,55.8,58.3,53.0,48.5,80,75,66,30.06,29.94,7,1,7,0.00
2013-7-11,68.8,61.3,51.5,51.8,49.3,45.0,79,65,50,30.06,29.98,7,2,7,0.00
2013-7-12,65.7,58.5,52.2,54.2,49.7,45.5,79,73,62,30.09,29.99,6,1,7,0.00
2013-7-13,73.6,62.0,48.1,54.5,49.1,41.9,81,64,42,30.18,30.09,7,2,7,0.00
2013-7-14,77.4,65.2,51.3,54.6,49.9,44.4,79,59,39,30.12,29.98,9,2,9,0.00
2013-7-15,74.9,66.1,53.5,55.8,50.7,45.7,76,59,44,30.03,29.88,12,2,12,0.00
2013-7-16,78.8,70.2,60.1,56.2,52.1,47.1,65,53,39,29.89,29.79,13,2,13,0.00
2013-7-17,70.9,65.3,58.0,57.6,54.7,50.2,77,69,60,30.18,29.87,11,2,11,0.00
2013-7-18,75.1,64.0,54.9,60.1,54.4,48.2,79,72,58,30.21,30.11,6,1,6,0.00
2013-7-19,75.4,64.3,54.4,62.0,55.2,47.8,80,73,61,30.15,30.03,5,1,5,0.00
2013-7-20,74.0,62.9,55.4,61.3,54.5,48.6,80,74,64,30.08,29.94,7,1,7,0.00
2013-7-21,76.7,63.1,55.4,62.1,54.5,48.6,79,74,60,29.97,29.90,8,1,8,0.00
2013-7-22,80.3,64.5,56.5,64.4,55.3,49.5,79,73,58,30.06,29.93,5,1,5,0.00
2013-7-23,78.3,66.4,54.5,59.8,53.2,42.8,78,64,43,30.06,29.96,8,1,8,0.00
2013-7-24,77.8,68.2,56.0,61.7,54.1,48.8,77,62,44,30.05,29.99,8,2,8,0.00
2013-7-25,79.6,66.4,54.4,59.9,53.1,47.0,78,63,46,30.10,30.01,7,2,7,0.00
2013-7-26,77.0,67.0,54.4,59.6,52.6,47.0,77,61,39,30.15,30.06,8,2,8,0.00
2013-7-27,78.5,64.2,52.9,57.1,51.4,45.5,78,64,42,30.16,29.99,8,1,9,0.00
2013-7-28,68.4,59.4,54.4,56.0,50.7,47.3,79,73,63,30.01,29.95,9,2,11,0.00
2013-7-29,73.8,63.1,53.3,57.5,52.4,46.3,79,69,55,29.99,29.93,7,1,7,0.00
2013-7-30,75.4,63.6,55.1,60.6,53.8,48.3,78,71,57,30.12,29.99,7,1,8,0.00
2013-7-31,71.5,61.6,56.2,61.0,53.5,48.3,77,75,70,30.11,29.97,11,1,11,0.00
2013-8-1,68.6,60.9,55.6,57.1,52.3,47.6,77,73,67,30.05,30.01,10,2,10,0.00
2013-8-2,63.0,59.2,57.1,55.3,49.8,46.7,76,71,64,30.11,30.04,5,0,5,0.13
2013-8-3,73.8,63.9,57.1,60.1,50.8,38.7,74,63,48,30.11,30.04,7,1,7,0.00
2013-8-4,75.1,66.4,55.8,61.7,55.7,46.9,75,69,60,30.04,29.92,9,2,9,0.00
2013-8-5,81.7,68.9,57.2,63.1,56.9,49.1,75,66,52,30.00,29.91,6,2,6,0.00
2013-8-6,80.5,67.2,55.4,61.9,54.5,48.0,76,65,46,29.99,29.90,6,2,6,0.00
2013-8-7,81.2,67.1,56.2,61.8,54.0,47.9,75,64,41,30.00,29.93,10,2,10,0.00
2013-8-8,78.5,65.9,58.1,62.2,54.9,49.7,74,68,53,30.02,29.92,7,1,8,0.00
2013-8-9,80.5,68.2,56.2,61.9,55.8,48.0,75,65,50,29.94,29.83,8,1,8,0.00
2013-8-10,76.0,64.9,58.1,63.8,54.5,47.3,74,69,63,30.00,29.88,9,2,9,0.10
2013-8-11,76.5,65.0,56.0,59.4,53.7,47.4,73,67,55,30.04,29.96,9,1,9,0.00
2013-8-12,76.7,66.3,59.0,59.4,54.1,50.4,74,65,49,30.06,29.99,8,1,8,0.00
2013-8-13,77.8,66.4,55.3,59.0,54.0,47.1,74,65,49,30.08,29.90,6,1,6,0.00
2013-8-14,80.5,65.8,55.4,62.8,54.6,47.3,74,68,50,29.95,29.89,10,1,10,0.07
2013-8-15,68.8,65.2,61.2,54.9,49.9,45.4,67,58,50,29.98,29.90,6,0,6,0.06
2013-8-16,81.7,69.1,58.7,66.3,49.9,27.0,71,52,25,30.00,29.93,10,1,10,0.02
2013-8-17,76.1,67.4,59.8,62.5,56.2,50.4,72,68,58,30.06,29.99,14,2,14,0.00
2013-8-18,77.8,65.7,57.2,61.8,54.3,47.7,73,67,56,30.11,30.06,13,2,13,0.00
2013-8-19,77.8,65.4,56.9,60.9,53.8,47.9,73,67,51,30.09,30.04,11,1,11,0.00
2013-8-20,72.7,65.0,57.2,57.1,52.0,48.4,73,63,47,30.15,30.05,10,2,10,0.00
2013-8-21,74.9,64.6,51.8,56.5,51.3,43.5,74,63,51,30.07,29.92,11,2,11,0.00
2013-8-22,80.8,67.8,55.1,59.2,53.5,46.6,73,61,39,29.93,29.80,8,1,8,0.00
2013-8-23,73.4,66.3,61.0,60.0,55.0,51.6,73,67,57,29.87,29.81,12,2,12,0.00
2013-8-24,74.3,65.5,60.1,59.1,53.6,50.8,73,66,50,29.90,29.83,8,1,8,0.00
2013-8-25,72.4,63.0,53.6,56.4,51.9,44.5,73,67,53,29.92,29.84,7,1,7,0.00
2013-8-26,75.6,64.4,59.4,60.7,53.5,49.7,72,68,45,29.94,29.84,12,1,12,0.01
2013-8-27,77.9,67.4,59.9,62.8,55.1,48.3,71,65,55,29.94,29.77,7,1,7,0.00
2013-8-28,76.5,67.6,58.9,63.5,54.3,37.3,70,63,40,29.89,29.82,7,1,7,0.15
2013-8-29,72.7,66.3,63.5,60.0,43.1,20.6,65,44,21,30.00,29.83,7,1,7,0.48
2013-8-30,77.6,67.3,58.3,62.2,48.2,25.8,70,52,27,30.14,30.00,8,1,8,0.00
2013-8-31,74.3,65.0,56.0,59.6,51.9,33.4,70,63,42,30.07,29.82,9,2,9,0.00
2013-9-1,79.9,67.6,57.1,63.4,53.4,41.1,69,61,52,29.87,29.79,10,2,10,0.00
2013-9-2,79.6,67.9,58.5,60.9,55.0,48.3,70,64,51,29.93,29.85,10,1,10,0.00
2013-9-3,70.9,63.6,59.8,59.2,43.2,3.2,70,51,1,30.01,29.92,5,1,5,0.41
2013-9-4,67.9,62.5,58.0,55.9,41.5,6.8,66,48,15,30.04,29.98,6,1,6,0.01
2013-9-5,66.1,61.4,59.0,53.6,27.0,2.5,65,32,1,30.02,29.91,6,1,6,0.40
2013-9-6,67.3,62.2,59.8,40.1,12.1,-27.4,40,10,1,30.09,29.92,5,0,5,0.09
2013-9-7,70.7,62.8,58.3,59.5,25.6,2.0,69,29,1,30.09,30.00,6,1,6,0.00
2013-9-8,78.3,65.7,55.3,66.0,45.8,1.5,70,52,1,30.10,30.01,4,1,4,0.00
2013-9-9,73.3,63.1,57.2,63.0,47.8,28.0,71,59,30,30.05,29.96,8,1,8,0.00
2013-9-10,72.9,63.7,56.2,62.6,46.2,1.8,71,56,6,29.98,29.87,8,2,9,0.00
2013-9-11,85.7,71.1,59.2,67.9,58.5,46.6,72,65,54,29.93,29.86,7,2,7,0.00
2013-9-12,79.0,67.0,59.9,66.5,52.0,36.0,71,59,41,29.99,29.89,6,1,6,0.00
2013-9-13,66.1,63.2,60.5,53.6,44.6,29.2,65,52,29,29.95,29.86,5,0,5,0.00
2013-9-14,68.6,63.1,58.9,57.6,44.4,23.4,69,52,23,29.86,29.71,4,1,4,0.00
2013-9-15,64.8,60.2,55.8,43.0,15.3,2.3,51,17,1,29.80,29.69,6,1,6,0.12
2013-9-16,70.9,61.5,58.0,60.2,28.0,1.6,70,32,1,29.91,29.79,8,1,10,0.02
2013-9-17,62.8,58.7,56.2,53.6,42.2,30.3,72,55,38,29.91,29.85,3,0,3,0.05
2013-9-18,69.8,58.9,51.7,57.6,38.5,18.7,72,50,24,30.09,29.91,5,1,5,0.00
2013-9-19,77.0,60.6,47.2,60.3,45.6,3.2,72,59,14,30.06,29.79,5,1,5,0.00
2013-9-20,76.1,60.9,50.9,59.9,48.3,34.2,73,64,41,29.79,29.63,12,1,12,0.00
2013-9-21,70.7,59.5,52.9,58.6,35.1,-0.9,71,45,1,29.74,29.67,6,1,9,0.00
2013-9-22,58.9,55.9,54.2,43.3,18.8,-1.3,59,26,1,29.77,29.58,6,1,6,0.87
2013-9-23,59.2,54.9,48.2,18.6,2.5,-2.1,22,7,1,29.98,29.77,6,1,6,0.29
2013-9-24,61.2,52.9,47.5,49.9,15.3,-6.3,67,24,1,29.98,29.86,5,1,5,0.02
2013-9-25,58.9,52.2,47.2,48.6,22.2,-4.8,73,37,1,30.05,29.87,8,2,8,0.05
2013-9-26,61.2,51.5,44.3,51.9,22.6,-7.5,71,37,1,30.15,30.04,5,1,5,0.01
2013-9-27,55.4,53.2,48.6,35.2,22.3,8.1,48,31,17,30.14,29.87,9,1,9,0.04
2013-9-28,59.4,54.8,51.3,23.9,0.9,-3.5,29,3,1,29.87,29.37,8,1,8,2.17
2013-9-29,53.6,52.1,50.0,24.0,-1.2,-4.0,36,4,1,29.57,29.19,7,1,7,0.77
2013-9-30,55.8,50.5,47.7,38.7,-2.8,-31.1,58,3,1,29.94,29.46,8,1,8,1.04
2013-10-1,55.6,50.1,46.1,32.8,-0.4,-7.5,44,7,1,30.14,29.93,7,1,7,0.26
2013-10-2,53.1,50.1,48.4,-1.7,-4.3,-5.7,12,2,1,30.20,30.06,6,1,6,0.20
2013-10-3,54.4,49.5,44.1,33.2,6.7,-6.3,46,15,1,30.47,30.20,5,1,5,0.00
2013-10-4,58.0,49.3,42.5,46.6,13.7,-10.3,66,27,1,30.49,30.37,4,1,4,0.01
2013-10-5,61.6,51.8,44.3,51.9,22.3,-8.6,71,37,1,30.37,30.15,5,1,5,0.01
2013-10-6,68.0,55.1,43.4,56.9,36.1,-7.9,72,52,1,30.15,29.91,14,2,14,0.13
2013-10-7,59.4,54.0,50.8,50.2,26.1,-3.1,73,42,1,30.03,29.93,14,2,14,0.09
2013-10-8,56.5,50.0,43.7,46.7,32.9,11.3,73,52,21,30.09,29.98,7,1,8,0.12
2013-10-9,55.3,47.3,39.6,45.9,23.4,-9.9,71,42,1,30.15,29.97,5,1,5,0.01
2013-10-10,56.0,50.2,45.4,43.9,18.9,-6.7,64,32,1,30.09,29.95,5,0,5,0.02
2013-10-11,54.7,51.2,48.6,11.3,-0.6,-4.8,21,4,1,30.16,30.08,3,0,3,0.04
2013-10-12,54.2,49.6,44.3,0.0,0.0,0.0,0,0,100,30.23,30.08,5,1,5,0.06
2013-10-13,56.2,47.5,41.2,0.0,0.0,0.0,0,0,100,30.39,30.23,7,1,7,0.01
2013-10-14,54.7,48.4,42.5,0.0,0.0,0.0,0,0,100,30.44,30.37,7,1,7,0.00
2013-10-15,54.4,47.9,42.1,0.0,0.0,0.0,0,0,100,30.40,30.20,4,1,4,0.01
2013-10-16,53.1,49.2,44.8,0.0,0.0,0.0,0,0,100,30.22,30.16,9,1,9,0.00
2013-10-17,54.7,49.7,44.1,0.0,0.0,0.0,0,0,100,30.29,30.21,5,1,5,0.00
2013-10-18,51.5,47.7,44.1,0.0,0.0,0.0,0,0,100,30.26,30.16,7,1,7,0.01
2013-10-19,49.3,47.2,44.5,0.0,0.0,0.0,0,0,100,30.21,30.15,6,1,6,0.01
2013-10-20,49.7,48.3,47.2,0.0,0.0,0.0,0,0,100,30.22,30.16,7,1,7,0.00
2013-10-21,49.9,48.6,47.5,0.0,0.0,0.0,0,0,100,30.19,30.11,6,2,7,0.00
2013-10-22,51.3,48.9,47.7,0.0,0.0,0.0,0,0,100,30.13,30.05,8,2,8,0.00
2013-10-23,51.7,48.2,43.7,0.0,0.0,0.0,0,0,100,30.07,30.00,5,1,5,0.01
2013-10-24,49.3,46.5,42.5,0.0,0.0,0.0,0,0,100,30.14,30.04,3,1,3,0.01
2013-10-25,51.5,48.9,45.0,0.0,0.0,0.0,0,0,100,30.34,30.14,3,0,3,0.03
2013-10-26,53.5,49.9,46.8,0.0,0.0,0.0,0,0,100,30.35,30.21,7,1,7,0.00
2013-10-27,54.5,49.9,47.2,0.0,0.0,0.0,0,0,100,30.21,29.91,11,1,11,0.12
2013-10-28,57.2,50.5,45.7,0.0,0.0,0.0,0,0,100,29.96,29.90,14,2,14,0.00
2013-10-29,54.5,44.2,36.7,0.0,0.0,0.0,0,0,100,30.05,29.95,4,1,4,0.00
2013-10-30,54.4,46.7,38.2,0.0,0.0,0.0,0,0,100,30.14,30.03,7,1,7,0.01
2013-10-31,54.9,51.3,48.2,0.0,0.0,0.0,0,0,100,30.28,30.10,8,1,8,0.00
2013-11-1,58.0,53.4,50.8,0.0,0.0,0.0,0,0,100,30.29,29.86,4,1,4,0.01
2013-11-2,52.2,49.3,43.9,0.0,0.0,0.0,0,0,100,29.90,29.51,15,4,15,0.57
2013-11-3,50.9,44.3,38.5,0.0,0.0,0.0,0,0,100,30.12,29.90,7,1,7,0.01
2013-11-4,47.9,43.5,38.3,0.0,0.0,0.0,0,0,100,30.20,30.06,4,1,4,0.03
2013-11-5,52.6,47.3,41.9,0.0,0.0,0.0,0,0,100,30.27,30.02,9,1,9,0.19
2013-11-6,51.3,46.4,41.2,0.0,0.0,0.0,0,0,100,30.33,30.04,4,1,4,0.20
2013-11-7,50.9,48.4,47.3,0.0,0.0,0.0,0,0,100,30.04,29.72,11,2,11,1.20
2013-11-8,52.0,47.1,41.9,0.0,0.0,0.0,0,0,100,30.17,29.98,12,2,12,0.00
2013-11-9,47.9,44.2,39.2,0.0,0.0,0.0,0,0,100,30.16,30.08,7,1,7,0.09
2013-11-10,49.7,46.8,45.2,0.0,0.0,0.0,0,0,100,30.16,30.09,9,2,9,0.01
2013-11-11,52.9,46.8,43.6,0.0,0.0,0.0,0,0,100,30.18,30.02,6,1,6,0.00
2013-11-12,55.3,50.0,44.5,0.0,0.0,0.0,0,0,100,30.39,30.04,6,1,6,0.26
2013-11-13,54.7,50.4,47.9,0.0,0.0,0.0,0,0,100,30.45,30.32,6,1,6,0.02
2013-11-14,49.7,46.3,42.5,0.0,0.0,0.0,0,0,100,30.32,30.07,3,1,3,0.00
2013-11-15,46.6,44.3,41.9,0.0,0.0,0.0,0,0,100,30.08,29.35,14,2,14,0.11
2013-11-16,47.9,43.5,38.9,0.0,0.0,0.0,0,0,100,29.79,29.36,12,3,12,0.00
2013-11-17,47.9,45.2,42.1,0.0,0.0,0.0,0,0,100,29.92,29.78,12,2,12,0.36
2013-11-18,50.6,48.0,45.5,0.0,0.0,0.0,0,0,100,29.92,29.57,8,2,8,0.99
2013-11-19,50.8,44.3,37.6,0.0,0.0,0.0,0,0,100,30.07,29.57,10,2,10,0.09
2013-11-20,41.9,36.7,33.5,0.0,0.0,0.0,0,0,100,30.51,30.07,10,2,10,0.00
2013-11-21,41.0,36.9,34.2,0.0,0.0,0.0,0,0,100,30.66,30.50,7,2,8,0.00
2013-11-22,43.9,38.8,36.0,0.0,0.0,0.0,0,0,100,30.64,30.45,10,2,10,0.00
2013-11-23,46.1,40.4,35.8,0.0,0.0,0.0,0,0,100,30.45,30.21,7,1,7,0.00
2013-11-24,46.3,39.9,36.4,0.0,0.0,0.0,0,0,100,30.27,30.17,5,1,5,0.00
2013-11-25,47.0,39.3,34.6,0.0,0.0,0.0,0,0,100,30.33,30.26,4,1,4,0.01
2013-11-26,45.7,41.1,35.8,0.0,0.0,0.0,0,0,100,30.29,30.11,4,1,4,0.01
2013-11-27,50.2,44.1,37.6,0.0,0.0,0.0,0,0,100,30.11,29.98,5,1,5,0.00
2013-11-28,45.7,39.5,36.0,0.0,0.0,0.0,0,0,100,30.19,30.04,2,1,4,0.01
2013-11-29,45.7,43.1,37.6,0.0,0.0,0.0,0,0,100,30.33,30.19,3,0,3,0.01
2013-11-30,48.2,46.4,43.6,0.0,0.0,0.0,0,0,100,30.34,30.11,9,2,9,0.09
2013-12-1,51.3,49.1,42.5,0.0,0.0,0.0,0,0,100,30.11,29.76,17,3,17,0.21
2013-12-2,43.4,38.5,34.6,0.0,0.0,0.0,0,0,100,30.07,29.82,12,2,12,0.02
2013-12-3,38.2,34.9,32.9,0.0,0.0,0.0,0,0,100,30.31,30.07,14,3,14,0.00
2013-12-4,37.1,31.7,27.7,0.0,0.0,0.0,0,0,100,30.35,30.29,6,1,6,0.00
2013-12-5,33.7,29.1,25.4,0.0,0.0,0.0,0,0,100,30.32,30.19,4,1,4,0.00
2013-12-6,32.2,28.6,26.1,0.0,0.0,0.0,0,0,100,30.23,30.12,12,2,12,0.00
2013-12-7,29.5,25.3,19.3,0.0,0.0,0.0,0,0,100,30.43,30.22,10,2,10,0.00
2013-12-8,31.3,24.8,19.1,0.0,0.0,0.0,0,0,100,30.59,30.42,4,1,4,0.00
2013-12-9,31.9,27.5,22.3,23.0,11.5,0.0,70,38,60,30.59,30.50,3,1,3,0.00
2013-12-10,36.8,33.1,30.7,18.5,-0.7,-41.0,60,28,3,30.51,30.42,4,1,4,0.00
2013-12-11,38.2,33.1,29.3,0.0,-19.6,-47.9,11,1,1,30.43,30.18,4,1,4,0.01
2013-12-12,41.4,36.6,32.8,0.0,0.0,0.0,0,0,100,30.18,30.05,6,1,6,0.29
2013-12-13,45.9,43.3,40.3,0.0,0.0,0.0,0,0,100,30.44,30.14,8,1,8,0.02
2013-12-14,45.5,43.6,41.4,0.0,0.0,0.0,0,0,100,30.45,30.33,9,1,9,0.00
2013-12-15,49.5,46.3,43.7,0.0,0.0,0.0,0,0,100,30.46,30.33,12,2,12,0.09
2013-12-16,45.7,42.4,36.7,0.0,0.0,0.0,0,0,100,30.50,30.29,3,1,3,0.00
2013-12-17,42.8,41.3,39.2,0.0,0.0,0.0,0,0,100,30.29,30.12,4,0,4,0.00
2013-12-18,43.2,40.2,34.9,0.0,0.0,0.0,0,0,100,30.17,30.03,10,1,10,0.05
2013-12-19,38.2,34.9,32.2,0.0,0.0,0.0,0,0,100,30.35,30.16,12,1,12,0.00
2013-12-20,41.9,36.8,32.9,0.0,0.0,0.0,0,0,100,30.21,29.71,12,1,12,0.12
2013-12-21,44.8,42.9,40.9,0.0,0.0,0.0,0,0,100,30.18,29.85,4,1,5,0.17
2013-12-22,48.6,47.0,44.6,0.0,0.0,0.0,0,0,100,30.31,30.17,6,1,6,0.25
2013-12-23,50.8,46.3,39.2,0.0,0.0,0.0,0,0,100,30.51,30.16,12,3,12,0.11
2013-12-24,44.8,40.6,35.3,0.0,0.0,0.0,0,0,100,30.62,30.51,4,1,4,0.00
2013-12-25,41.2,37.8,33.3,0.0,0.0,0.0,0,0,100,30.54,30.39,5,1,5,0.01
2013-12-26,40.5,36.9,33.5,0.0,0.0,0.0,0,0,100,30.41,30.21,5,1,5,0.00
2013-12-27,44.6,40.2,33.7,0.0,0.0,0.0,0,0,100,30.39,30.14,10,1,10,0.01
2013-12-28,45.2,41.8,36.0,0.0,0.0,0.0,0,0,100,30.54,30.38,4,1,4,0.01
2013-12-29,43.9,40.2,36.4,0.0,0.0,0.0,0,0,100,30.49,30.32,5,1,5,0.00
2013-12-30,42.8,41.1,38.9,0.0,0.0,0.0,0,0,100,30.33,30.14,6,1,6,0.01
2013-12-31,45.0,43.6,41.8,0.0,0.0,0.0,0,0,100,30.39,30.20,5,1,5,0.00
2014-1-1,43.6,42.3,40.7,0.0,0.0,0.0,0,0,100,30.41,30.26,4,1,4,0.02
2014-1-2,48.6,44.9,42.1,0.0,0.0,0.0,0,0,100,30.27,29.89,14,2,14,0.18